DW1146 Weather Reports


Display with metric or nautical units.
time (UTC)temp
F
wind
direction
speed
MPH
gust
MPH
rain 1hr
in
rain 24hr
in
rain mn
in
humidity
%
barometer
mb
20190318153014 31 297 1.0 2.0 0.00 0.00 0.00 43 1024.5
20190318152513 30 180 1.0 2.0 0.00 0.00 0.00 42 1024.6
20190318152015 29 154 2.0 4.0 0.00 0.00 0.00 42 1024.6
20190318151512 28 346 2.0 4.0 0.00 0.00 0.00 43 1024.7
20190318151015 28 314 4.0 6.0 0.00 0.00 0.00 42 1024.7
20190318150513 28 263 3.0 5.0 0.00 0.00 0.00 41 1024.8
20190318150015 30 232 5.0 7.0 0.00 0.00 0.00 40 1024.7
20190318145512 30 190 2.0 4.0 0.00 0.00 0.00 40 1024.8
20190318145013 31 334 3.0 5.0 0.00 0.00 0.00 41 1024.8
20190318144512 31 99 1.0 2.0 0.00 0.00 0.00 42 1024.8
20190318144015 29 67 0.0 2.0 0.00 0.00 0.00 43 1024.8
20190318143514 28 57 1.0 3.0 0.00 0.00 0.00 43 1024.8
20190318143015 27 337 3.0 5.0 0.00 0.00 0.00 40 1024.8
20190318142513 27 315 4.0 6.0 0.00 0.00 0.00 40 1024.8
20190318142015 28 187 3.0 5.0 0.00 0.00 0.00 42 1024.8
20190318141517 28 298 2.0 3.0 0.00 0.00 0.00 41 1024.6
20190318141016 28 313 2.0 3.0 0.00 0.00 0.00 42 1024.6
20190318140515 28 315 3.0 4.0 0.00 0.00 0.00 43 1024.7
20190318140014 27 315 3.0 4.0 0.00 0.00 0.00 43 1024.6
20190318135511 27 337 3.0 4.0 0.00 0.00 0.00 44 1024.6
20190318135015 26 333 2.0 4.0 0.00 0.00 0.00 44 1024.6
20190318134512 26 296 3.0 4.0 0.00 0.00 0.00 44 1024.6
20190318134013 26 236 4.0 7.0 0.00 0.00 0.00 45 1024.6
20190318133513 26 251 2.0 5.0 0.00 0.00 0.00 46 1024.6
20190318133014 26 211 4.0 5.0 0.00 0.00 0.00 45 1024.5
20190318132512 26 195 3.0 5.0 0.00 0.00 0.00 46 1024.4
20190318132017 26 292 3.0 4.0 0.00 0.00 0.00 48 1024.4
20190318131512 26 299 3.0 4.0 0.00 0.00 0.00 48 1024.3
20190318131013 26 211 2.0 4.0 0.00 0.00 0.00 48 1024.3
20190318130512 25 282 3.0 4.0 0.00 0.00 0.00 48 1024.3
20190318130015 26 207 3.0 5.0 0.00 0.00 0.00 49 1024.2
20190318125512 27 255 3.0 5.0 0.00 0.00 0.00 53 1024.2
20190318125014 28 242 2.0 4.0 0.00 0.00 0.00 59 1024.2
20190318124513 28 211 0.0 1.0 0.00 0.00 0.00 62 1024.0
20190318124013 27 78 1.0 2.0 0.00 0.00 0.00 63 1023.9
20190318123512 26 337 0.0 0.0 0.00 0.00 0.00 62 1023.8
20190318123014 26 72 2.0 3.0 0.00 0.00 0.00 61 1023.7
20190318122512 25 110 1.0 2.0 0.00 0.00 0.00 62 1023.6
20190318122013 25 337 1.0 2.0 0.00 0.00 0.00 63 1023.5
20190318121512 24 315 1.0 2.0 0.00 0.00 0.00 65 1023.4
20190318121013 24 315 0.0 1.0 0.00 0.00 0.00 66 1023.3
20190318120512 23 337 1.0 2.0 0.00 0.00 0.00 67 1023.2
20190318120013 22 286 0.0 2.0 0.00 0.00 0.00 68 1023.1
20190318115512 22 313 1.0 2.0 0.00 0.00 0.00 67 1023.0
20190318115014 22 188 2.0 3.0 0.00 0.00 0.00 65 1022.8
20190318114511 22 221 2.0 3.0 0.00 0.00 0.00 62 1022.7
20190318114013 22 247 2.0 3.0 0.00 0.00 0.00 60 1022.6
20190318113514 21 202 3.0 4.0 0.00 0.00 0.00 61 1022.4
20190318113015 20 202 3.0 4.0 0.00 0.00 0.00 63 1022.4
20190318112512 19 200 3.0 3.0 0.00 0.00 0.00 64 1022.3
20190318112014 19 180 3.0 3.0 0.00 0.00 0.00 64 1022.3
20190318111511 18 180 2.0 3.0 0.00 0.00 0.00 65 1022.4
20190318111013 18 180 2.0 2.0 0.00 0.00 0.00 66 1022.3
20190318110512 18 180 2.0 3.0 0.00 0.00 0.00 66 1022.2
20190318110014 18 180 3.0 4.0 0.00 0.00 0.00 69 1022.1
20190318105511 18 180 2.0 3.0 0.00 0.00 0.00 71 1022.1
20190318105013 17 180 2.0 3.0 0.00 0.00 0.00 71 1022.0
20190318104512 17 180 1.0 2.0 0.00 0.00 0.00 72 1022.0
20190318104013 17 180 1.0 1.0 0.00 0.00 0.00 73 1021.9
20190318103512 17 180 3.0 3.0 0.00 0.00 0.00 72 1021.9
20190318103014 18 180 2.0 2.0 0.00 0.00 0.00 73 1021.9
20190318102512 18 180 2.0 3.0 0.00 0.00 0.00 73 1021.9
20190318102013 18 180 3.0 3.0 0.00 0.00 0.00 72 1021.8
20190318101512 18 157 3.0 3.0 0.00 0.00 0.00 71 1021.7
20190318101013 18 157 2.0 3.0 0.00 0.00 0.00 71 1021.8
20190318100513 19 135 2.0 2.0 0.00 0.00 0.00 70 1021.8
20190318100015 19 112 1.0 1.0 0.00 0.00 0.00 68 1021.7
20190318095512 20 180 2.0 3.0 0.00 0.00 0.00 68 1021.7
20190318095014 20 202 3.0 3.0 0.00 0.00 0.00 69 1021.7
20190318094513 20 202 2.0 3.0 0.00 0.00 0.00 69 1021.6
20190318094012 20 202 2.0 3.0 0.00 0.00 0.00 68 1021.5
20190318093512 20 198 3.0 4.0 0.00 0.00 0.00 70 1021.5
20190318093014 20 202 3.0 3.0 0.00 0.00 0.00 70 1021.4
20190318092512 20 202 3.0 4.0 0.00 0.00 0.00 70 1021.4
20190318092013 20 202 3.0 4.0 0.00 0.00 0.00 72 1021.5
20190318091518 20 202 3.0 3.0 0.00 0.00 0.00 72 1021.4
20190318091013 20 202 2.0 3.0 0.00 0.00 0.00 72 1021.4
20190318090512 20 180 2.0 3.0 0.00 0.00 0.00 72 1021.4
20190318090013 20 185 2.0 2.0 0.00 0.00 0.00 73 1021.3
20190318085512 20 202 2.0 3.0 0.00 0.00 0.00 73 1021.3
20190318085015 20 198 2.0 3.0 0.00 0.00 0.00 74 1021.3
20190318084511 20 202 1.0 2.0 0.00 0.00 0.00 74 1021.3
20190318084015 20 202 1.0 1.0 0.00 0.00 0.00 74 1021.2
20190318083513 20 180 1.0 2.0 0.00 0.00 0.00 75 1021.3
20190318083014 20 135 2.0 2.0 0.00 0.00 0.00 74 1021.3
20190318082512 21 165 2.0 3.0 0.00 0.00 0.00 74 1021.3
20190318082013 21 180 2.0 3.0 0.00 0.00 0.00 74 1021.2
20190318081513 21 183 2.0 3.0 0.00 0.00 0.00 76 1021.3
20190318081013 21 202 2.0 3.0 0.00 0.00 0.00 77 1021.3
20190318080512 21 202 1.0 2.0 0.00 0.00 0.00 78 1021.3
20190318080014 21 202 1.0 2.0 0.00 0.00 0.00 79 1021.3
20190318075511 21 202 2.0 2.0 0.00 0.00 0.00 80 1021.3
20190318075013 21 202 2.0 3.0 0.00 0.00 0.00 81 1021.2
20190318074512 21 202 3.0 3.0 0.00 0.00 0.00 81 1021.2
20190318074013 21 202 2.0 3.0 0.00 0.00 0.00 80 1021.1
20190318073512 21 202 1.0 2.0 0.00 0.00 0.00 79 1021.2
20190318073013 22 315 1.0 2.0 0.00 0.00 0.00 79 1021.1
20190318072512 22 310 2.0 3.0 0.00 0.00 0.00 81 1021.2
20190318072014 22 302 2.0 3.0 0.00 0.00 0.00 80 1021.2
20190318071511 22 218 3.0 4.0 0.00 0.00 0.00 82 1021.2
20190318071013 22 260 1.0 2.0 0.00 0.00 0.00 82 1021.1
20190318070512 23 202 2.0 3.0 0.00 0.00 0.00 83 1021.2
20190318070013 23 292 3.0 4.0 0.00 0.00 0.00 84 1021.2
20190318065511 22 201 2.0 3.0 0.00 0.00 0.00 84 1021.3
20190318065013 22 292 1.0 1.0 0.00 0.00 0.00 86 1021.2
20190318064512 23 305 2.0 4.0 0.00 0.00 0.00 85 1021.3
20190318064013 23 311 1.0 2.0 0.00 0.00 0.00 86 1021.2
20190318063512 23 292 1.0 2.0 0.00 0.00 0.00 87 1021.3
20190318063013 23 223 2.0 2.0 0.00 0.00 0.00 88 1021.3
20190318062513 22 180 1.0 2.0 0.00 0.00 0.00 89 1021.3
20190318062013 23 202 1.0 2.0 0.00 0.00 0.00 88 1021.3
20190318061512 23 202 1.0 2.0 0.00 0.00 0.00 88 1021.3
20190318061014 23 202 0.0 1.0 0.00 0.00 0.00 88 1021.3
20190318060512 23 135 0.0 1.0 0.00 0.00 0.00 87 1021.3
20190318060014 23 135 0.0 1.0 0.00 0.00 0.00 87 1021.4
20190318055511 23 180 0.0 0.0 0.00 0.00 0.00 87 1021.3
20190318055013 23 180 2.0 4.0 0.00 0.00 0.00 86 1021.3
20190318054512 23 313 2.0 3.0 0.00 0.00 0.00 85 1021.3
20190318054012 23 337 4.0 5.0 0.00 0.00 0.00 84 1021.4
20190318053512 24 331 7.0 9.0 0.00 0.00 0.00 83 1021.4
20190318053013 24 320 4.0 7.0 0.00 0.00 0.00 81 1021.5
20190318052511 25 328 6.0 8.0 0.00 0.00 0.00 78 1021.5
20190318052013 25 324 6.0 10.0 0.00 0.00 0.00 76 1021.3
20190318051512 25 341 6.0 8.0 0.00 0.00 0.00 75 1021.1
20190318051014 25 310 4.0 6.0 0.00 0.00 0.00 76 1020.9
20190318050511 25 307 4.0 5.0 0.00 0.00 0.00 76 1020.8
20190318050014 25 305 5.0 7.0 0.00 0.00 0.00 75 1020.8
20190318045511 25 315 3.0 5.0 0.00 0.00 0.00 74 1020.7
20190318045013 25 299 4.0 5.0 0.00 0.00 0.00 74 1020.7
20190318044512 25 289 3.0 5.0 0.00 0.00 0.00 74 1020.7
20190318044012 25 299 4.0 7.0 0.00 0.00 0.00 73 1020.8
20190318043515 26 264 4.0 6.0 0.00 0.00 0.00 68 1020.7
20190318043014 26 265 5.0 8.0 0.00 0.00 0.00 63 1020.7
20190318042512 26 264 4.0 7.0 0.00 0.00 0.00 61 1020.7
20190318042014 26 199 4.0 6.0 0.00 0.00 0.00 61 1020.6
20190318041512 26 192 4.0 5.0 0.00 0.00 0.00 60 1020.6
20190318041014 26 202 5.0 7.0 0.00 0.00 0.00 59 1020.6
20190318040522 27 204 3.0 5.0 0.00 0.00 0.00 59 1020.6
20190318035511 27 201 5.0 7.0 0.00 0.00 0.00 59 1020.6
20190318035014 27 202 5.0 8.0 0.00 0.00 0.00 59 1020.7
20190318034512 26 202 5.0 8.0 0.00 0.00 0.00 58 1020.6
20190318034013 26 196 5.0 9.0 0.00 0.00 0.00 59 1020.6
20190318033513 26 191 7.0 10.0 0.00 0.00 0.00 59 1020.4
20190318033014 26 183 7.0 10.0 0.00 0.00 0.00 58 1020.4
20190318032511 27 191 7.0 10.0 0.00 0.00 0.00 57 1020.4
20190318032013 26 181 7.0 10.0 0.00 0.00 0.00 57 1020.5
20190318031512 26 182 5.0 7.0 0.00 0.00 0.00 56 1020.5
20190318031014 27 185 5.0 7.0 0.00 0.00 0.00 54 1020.5
20190318030512 27 172 6.0 8.0 0.00 0.00 0.00 55 1020.5
20190318030014 27 179 7.0 10.0 0.00 0.00 0.00 54 1020.6
20190318025513 27 182 8.0 11.0 0.00 0.00 0.00 54 1020.6
20190318025015 26 185 6.0 9.0 0.00 0.00 0.00 54 1020.6
20190318024512 26 176 6.0 8.0 0.00 0.00 0.00 53 1020.6
20190318024014 26 189 6.0 10.0 0.00 0.00 0.00 54 1020.6
20190318023512 26 183 6.0 8.0 0.00 0.00 0.00 53 1020.6
20190318023016 26 197 6.0 8.0 0.00 0.00 0.00 53 1020.6
20190318022512 26 198 7.0 10.0 0.00 0.00 0.00 51 1020.7
20190318022015 26 200 6.0 8.0 0.00 0.00 0.00 51 1020.6
20190318021512 26 189 6.0 9.0 0.00 0.00 0.00 51 1020.7
20190318021013 27 198 5.0 8.0 0.00 0.00 0.00 50 1020.6
20190318020513 27 190 8.0 12.0 0.00 0.00 0.00 49 1020.7
20190318020014 26 187 5.0 7.0 0.00 0.00 0.00 49 1020.8
20190318015512 26 188 6.0 10.0 0.00 0.00 0.00 50 1020.7
20190318015014 26 184 6.0 8.0 0.00 0.00 0.00 50 1020.7
20190318014512 26 174 7.0 10.0 0.00 0.00 0.00 49 1020.7
20190318014014 26 177 6.0 8.0 0.00 0.00 0.00 50 1020.8
20190318013512 26 188 5.0 8.0 0.00 0.00 0.00 49 1020.8
20190318013015 26 182 6.0 8.0 0.00 0.00 0.00 49 1020.8
20190318012512 26 182 5.0 7.0 0.00 0.00 0.00 48 1020.8
20190318012015 26 198 5.0 7.0 0.00 0.00 0.00 49 1020.8
20190318011513 26 179 4.0 6.0 0.00 0.00 0.00 48 1020.7
20190318011013 26 198 3.0 5.0 0.00 0.00 0.00 49 1020.8
20190318010512 26 201 3.0 5.0 0.00 0.00 0.00 48 1020.8
20190318010015 26 220 4.0 6.0 0.00 0.00 0.00 48 1020.9
20190318005511 26 197 4.0 6.0 0.00 0.00 0.00 48 1020.7
20190318005016 26 191 3.0 4.0 0.00 0.00 0.00 48 1020.7
20190318004512 26 202 3.0 4.0 0.00 0.00 0.00 48 1020.7
20190318004013 26 184 3.0 4.0 0.00 0.00 0.00 48 1020.7
20190318003512 26 198 3.0 4.0 0.00 0.00 0.00 48 1020.7
20190318003015 26 195 2.0 3.0 0.00 0.00 0.00 48 1020.8
20190318002512 26 202 1.0 2.0 0.00 0.00 0.00 46 1020.8
20190318002013 26 202 0.0 2.0 0.00 0.00 0.00 47 1020.7
20190318001512 26 180 1.0 3.0 0.00 0.00 0.00 47 1020.8
20190318001013 26 274 3.0 5.0 0.00 0.00 0.00 47 1020.7
20190318000516 26 250 4.0 6.0 0.00 0.00 0.00 47 1020.6
20190318000014 26 291 4.0 7.0 0.00 0.00 0.00 48 1020.6
20190317235512 26 293 3.0 4.0 0.00 0.00 0.00 47 1020.6
20190317235014 26 306 3.0 5.0 0.00 0.00 0.00 47 1020.6
20190317234512 26 288 3.0 5.0 0.00 0.00 0.00 46 1020.6
20190317234014 26 296 3.0 5.0 0.00 0.00 0.00 47 1020.6
20190317233513 27 292 4.0 6.0 0.00 0.00 0.00 47 1020.6
20190317233015 27 286 5.0 7.0 0.00 0.00 0.00 48 1020.5
20190317232512 27 294 4.0 6.0 0.00 0.00 0.00 48 1020.5
20190317232014 27 298 2.0 4.0 0.00 0.00 0.00 47 1020.4
20190317231512 27 296 5.0 7.0 0.00 0.00 0.00 47 1020.3
20190317231013 27 300 4.0 7.0 0.00 0.00 0.00 46 1020.4
20190317230513 27 312 5.0 8.0 0.00 0.00 0.00 46 1020.3
20190317230014 27 311 6.0 10.0 0.00 0.00 0.00 45 1020.3
20190317225511 27 306 5.0 9.0 0.00 0.00 0.00 45 1020.2
20190317225014 28 312 7.0 10.0 0.00 0.00 0.00 45 1020.2
20190317224513 28 306 7.0 11.0 0.00 0.00 0.00 45 1020.1
20190317224013 28 308 8.0 12.0 0.00 0.00 0.00 45 1020.2
20190317223513 28 310 9.0 13.0 0.00 0.00 0.00 44 1020.1
20190317223015 28 317 8.0 12.0 0.00 0.00 0.00 44 1020.1
20190317222512 28 318 7.0 10.0 0.00 0.00 0.00 44 1020.0
20190317222016 28 316 7.0 11.0 0.00 0.00 0.00 44 1020.0
20190317221512 28 312 9.0 13.0 0.00 0.00 0.00 45 1019.8
20190317221013 28 304 7.0 10.0 0.00 0.00 0.00 46 1019.7
20190317220513 28 308 9.0 13.0 0.00 0.00 0.00 46 1019.6
20190317220014 28 315 10.0 15.0 0.00 0.00 0.00 47 1019.6
20190317215512 28 320 7.0 11.0 0.00 0.00 0.00 46 1019.6
20190317215015 28 312 7.0 11.0 0.00 0.00 0.00 48 1019.6
20190317214512 29 314 7.0 10.0 0.00 0.00 0.00 47 1019.6
20190317214014 29 303 9.0 13.0 0.00 0.00 0.00 47 1019.6
20190317213512 29 318 8.0 12.0 0.00 0.00 0.00 47 1019.4
20190317213014 29 316 7.0 12.0 0.00 0.00 0.00 47 1019.4
20190317212512 29 312 9.0 13.0 0.00 0.00 0.00 48 1019.3
20190317212015 29 313 7.0 11.0 0.00 0.00 0.00 47 1019.3
20190317211515 30 330 6.0 10.0 0.00 0.00 0.00 45 1019.3
20190317211014 30 329 6.0 8.0 0.00 0.00 0.00 44 1019.2
20190317210513 30 336 5.0 7.0 0.00 0.00 0.00 43 1019.2
20190317210014 30 337 3.0 4.0 0.00 0.00 0.00 43 1019.2
20190317205513 30 328 3.0 4.0 0.00 0.00 0.00 43 1019.2
20190317205015 30 265 2.0 3.0 0.00 0.00 0.00 42 1019.2
20190317204513 30 337 1.0 2.0 0.00 0.00 0.00 41 1019.2
20190317204013 30 337 0.0 1.0 0.00 0.00 0.00 41 1019.2
20190317203513 30 180 1.0 2.0 0.00 0.00 0.00 41 1019.3
20190317203014 30 344 0.0 0.0 0.00 0.00 0.00 40 1019.3
20190317202512 30 202 1.0 2.0 0.00 0.00 0.00 41 1019.4
20190317202014 30 292 0.0 1.0 0.00 0.00 0.00 40 1019.3
20190317201513 30 315 0.0 1.0 0.00 0.00 0.00 41 1019.4
20190317201014 30 202 0.0 1.0 0.00 0.00 0.00 39 1019.4
20190317200513 30 292 0.0 1.0 0.00 0.00 0.00 41 1019.4
20190317200015 30 315 3.0 4.0 0.00 0.00 0.00 43 1019.4
20190317195512 30 323 2.0 4.0 0.00 0.00 0.00 44 1019.4
20190317195015 30 188 2.0 3.0 0.00 0.00 0.00 42 1019.4
20190317194512 30 330 4.0 5.0 0.00 0.00 0.00 43 1019.4
20190317194014 30 337 4.0 5.0 0.00 0.00 0.00 43 1019.3
20190317193513 30 328 5.0 6.0 0.00 0.00 0.00 43 1019.4
20190317193014 30 336 3.0 5.0 0.00 0.00 0.00 44 1019.4
20190317192512 30 2 4.0 6.0 0.00 0.00 0.00 44 1019.4
20190317192014 30 319 4.0 6.0 0.00 0.00 0.00 43 1019.5
20190317191512 30 327 4.0 6.0 0.00 0.00 0.00 43 1019.5
20190317191014 30 331 3.0 5.0 0.00 0.00 0.00 44 1019.6
20190317190513 30 309 3.0 5.0 0.00 0.00 0.00 43 1019.7
20190317190014 29 333 3.0 5.0 0.00 0.00 0.00 43 1019.7
20190317185512 29 335 4.0 6.0 0.00 0.00 0.00 43 1019.8
20190317185013 29 337 5.0 7.0 0.00 0.00 0.00 43 1019.7
20190317184512 29 330 6.0 8.0 0.00 0.00 0.00 43 1019.8
20190317184014 29 330 4.0 7.0 0.00 0.00 0.00 43 1019.8
20190317183513 29 330 5.0 6.0 0.00 0.00 0.00 43 1019.9
20190317183014 30 309 4.0 6.0 0.00 0.00 0.00 43 1020.0
20190317182512 30 329 3.0 5.0 0.00 0.00 0.00 42 1020.0
20190317182015 30 36 3.0 5.0 0.00 0.00 0.00 41 1020.1
20190317181514 31 66 4.0 7.0 0.00 0.00 0.00 43 1020.1
20190317181015 30 345 5.0 7.0 0.00 0.00 0.00 45 1020.2
20190317180512 29 123 2.0 4.0 0.00 0.00 0.00 44 1020.3
20190317180014 28 315 5.0 6.0 0.00 0.00 0.00 44 1020.3
20190317175512 29 319 7.0 10.0 0.00 0.00 0.00 45 1020.2
20190317175015 29 304 2.0 4.0 0.00 0.00 0.00 45 1020.3
20190317174513 29 310 2.0 4.0 0.00 0.00 0.00 45 1020.2
20190317174014 29 325 7.0 9.0 0.00 0.00 0.00 45 1020.2
20190317173513 28 309 6.0 9.0 0.00 0.00 0.00 45 1020.2
20190317173013 28 324 5.0 8.0 0.00 0.00 0.00 45 1020.3
20190317172512 28 308 7.0 11.0 0.00 0.00 0.00 45 1020.3
20190317172015 27 332 5.0 7.0 0.00 0.00 0.00 45 1020.4
20190317171512 27 314 5.0 7.0 0.00 0.00 0.00 47 1020.5
20190317171013 27 316 7.0 10.0 0.00 0.00 0.00 47 1020.5
20190317170512 28 305 7.0 9.0 0.00 0.00 0.00 47 1020.5
20190317170014 28 333 6.0 9.0 0.00 0.00 0.00 49 1020.7
20190317165512 28 324 7.0 9.0 0.00 0.00 0.00 50 1020.6
20190317165014 27 315 5.0 8.0 0.00 0.00 0.00 50 1020.7
20190317164512 27 333 6.0 10.0 0.00 0.00 0.00 52 1020.7
20190317164013 27 313 6.0 9.0 0.00 0.00 0.00 54 1020.8
20190317163512 27 319 6.0 9.0 0.00 0.00 0.00 56 1020.8
20190317163015 26 52 5.0 8.0 0.00 0.00 0.00 58 1020.8
20190317162512 25 285 4.0 8.0 0.00 0.00 0.00 59 1020.8
20190317162014 26 300 6.0 8.0 0.00 0.00 0.00 61 1020.8
20190317161512 26 299 5.0 8.0 0.00 0.00 0.00 63 1020.8
20190317161013 26 284 4.0 7.0 0.00 0.00 0.00 65 1020.9
20190317160512 26 316 5.0 8.0 0.00 0.00 0.00 66 1020.9
20190317160014 26 312 6.0 9.0 0.00 0.00 0.00 68 1020.9
20190317155512 26 76 2.0 3.0 0.00 0.00 0.00 68 1021.0
20190317155014 27 324 4.0 6.0 0.00 0.00 0.00 70 1021.1
20190317154511 26 317 3.0 6.0 0.00 0.00 0.00 73 1021.1
20190317154013 26 21 2.0 4.0 0.00 0.00 0.00 75 1021.1
20190317153512 25 20 3.0 5.0 0.00 0.00 0.00 77 1021.2